Time;durP1;ratioP1;P1;durP2;ratioP2;P2;SDS_P1;SDS_P2;PMS_P1;PMS_P2;Temp;Humidity;BMP_temperature;BMP_pressure;BME280_temperature;BME280_humidity;BME280_pressure;Samples;Min_cycle;Max_cycle;Signal;HPM_P1;HPM_P2
2022/03/15 00:02:12;;;;;;;6.65;3.92;;;;;;;;;;5044744;28;21503;-61
2022/03/15 00:04:39;;;;;;;9.77;4.90;;;;;;;;;;5043757;28;20108;-61
2022/03/15 00:07:05;;;;;;;8.15;4.90;;;;;;;;;;5026529;28;20052;-61
2022/03/15 00:09:31;;;;;;;8.23;4.75;;;;;;;;;;5044146;28;20045;-61
2022/03/15 00:11:59;;;;;;;11.40;6.43;;;;;;;;;;5044530;28;20120;-61
2022/03/15 00:14:25;;;;;;;10.43;5.13;;;;;;;;;;5043734;28;20053;-61
2022/03/15 00:16:52;;;;;;;13.88;5.45;;;;;;;;;;5044369;28;20102;-61
2022/03/15 00:19:18;;;;;;;12.40;5.32;;;;;;;;;;5043428;28;20132;-61
2022/03/15 00:21:45;;;;;;;13.27;5.15;;;;;;;;;;5044399;28;20051;-61
2022/03/15 00:24:11;;;;;;;12.80;5.53;;;;;;;;;;5044404;28;20041;-61
2022/03/15 00:26:37;;;;;;;16.95;6.32;;;;;;;;;;5040047;28;20080;-61
2022/03/15 00:29:04;;;;;;;18.10;6.03;;;;;;;;;;5044207;28;20496;-60
2022/03/15 00:31:30;;;;;;;17.75;6.07;;;;;;;;;;5042428;28;20152;-61
2022/03/15 00:33:56;;;;;;;14.07;6.22;;;;;;;;;;5042260;28;20498;-61
2022/03/15 00:36:24;;;;;;;13.60;6.53;;;;;;;;;;5044319;28;20067;-61
2022/03/15 00:38:50;;;;;;;12.85;6.47;;;;;;;;;;5043653;28;20127;-61
2022/03/15 00:41:16;;;;;;;15.55;5.95;;;;;;;;;;5043287;28;20033;-61
2022/03/15 00:43:43;;;;;;;14.57;5.95;;;;;;;;;;5043767;28;20417;-61
2022/03/15 00:46:09;;;;;;;9.05;5.20;;;;;;;;;;5043814;28;20044;-61
2022/03/15 00:48:35;;;;;;;12.32;5.78;;;;;;;;;;5042064;28;20128;-61
2022/03/15 00:51:02;;;;;;;14.77;7.03;;;;;;;;;;5043498;28;20041;-61
2022/03/15 00:53:28;;;;;;;12.38;5.40;;;;;;;;;;5043777;28;20450;-61
2022/03/15 00:55:54;;;;;;;9.35;5.28;;;;;;;;;;5044123;28;20538;-60
2022/03/15 00:58:20;;;;;;;8.95;5.55;;;;;;;;;;5026141;28;20041;-61
2022/03/15 01:00:48;;;;;;;8.98;5.07;;;;;;;;;;5043451;28;20043;-61
2022/03/15 01:03:14;;;;;;;13.80;5.97;;;;;;;;;;5042722;28;20049;-61
2022/03/15 01:05:40;;;;;;;14.65;5.63;;;;;;;;;;5043036;28;20116;-61
2022/03/15 01:08:06;;;;;;;10.80;4.95;;;;;;;;;;5043344;28;20495;-60
2022/03/15 01:10:34;;;;;;;11.40;5.35;;;;;;;;;;5043259;28;20546;-61
2022/03/15 01:13:00;;;;;;;10.45;5.50;;;;;;;;;;5043551;28;20096;-61
2022/03/15 01:15:26;;;;;;;17.95;5.63;;;;;;;;;;5042978;28;20486;-61
2022/03/15 01:17:53;;;;;;;18.50;6.82;;;;;;;;;;5043639;28;20041;-61
2022/03/15 01:20:19;;;;;;;18.52;5.93;;;;;;;;;;5042451;28;20470;-61
2022/03/15 01:22:45;;;;;;;14.43;5.95;;;;;;;;;;5043290;28;20044;-61
2022/03/15 01:25:12;;;;;;;12.40;5.88;;;;;;;;;;5043166;28;20045;-61
2022/03/15 01:27:38;;;;;;;15.57;5.25;;;;;;;;;;5043024;28;20335;-61
2022/03/15 01:30:04;;;;;;;13.38;5.40;;;;;;;;;;5042945;28;20135;-61
2022/03/15 01:32:30;;;;;;;15.02;6.07;;;;;;;;;;5024604;28;20044;-60
2022/03/15 01:34:57;;;;;;;13.75;6.50;;;;;;;;;;5040396;28;20576;-61
2022/03/15 01:37:23;;;;;;;15.88;6.97;;;;;;;;;;5043252;28;20123;-61
2022/03/15 01:39:49;;;;;;;23.95;9.43;;;;;;;;;;5043234;28;20041;-61
2022/03/15 01:42:15;;;;;;;16.67;7.85;;;;;;;;;;5025355;28;20067;-61
2022/03/15 01:44:46;;;;;;;22.60;8.60;;;;;;;;;;5042615;28;20052;-61
2022/03/15 01:47:13;;;;;;;21.92;8.88;;;;;;;;;;5042714;28;20041;-62
2022/03/15 01:49:39;;;;;;;18.98;8.68;;;;;;;;;;5041441;28;20409;-61
2022/03/15 01:52:05;;;;;;;17.40;9.40;;;;;;;;;;5039757;28;20037;-61
2022/03/15 01:54:32;;;;;;;17.35;8.05;;;;;;;;;;5040573;28;20092;-61
2022/03/15 01:56:58;;;;;;;16.52;8.85;;;;;;;;;;5039577;28;20044;-61
2022/03/15 01:59:26;;;;;;;18.63;8.02;;;;;;;;;;5039901;28;20120;-60
2022/03/15 02:01:52;;;;;;;16.08;8.52;;;;;;;;;;5042808;28;20049;-61
2022/03/15 02:04:18;;;;;;;17.30;8.80;;;;;;;;;;5041404;28;20081;-60
2022/03/15 02:09:13;;;;;;;;;;;;;;;;;;5041307;22;20063;-61
2022/03/15 02:11:39;;;;;;;18.10;7.72;;;;;;;;;;5039837;28;19960;-61
2022/03/15 02:14:06;;;;;;;16.08;8.07;;;;;;;;;;5042858;28;20048;-61
2022/03/15 02:16:32;;;;;;;15.15;7.95;;;;;;;;;;5042516;28;20043;-60
2022/03/15 02:18:59;;;;;;;20.05;8.82;;;;;;;;;;5042217;28;20037;-61
2022/03/15 02:21:26;;;;;;;22.20;8.25;;;;;;;;;;5042471;28;20505;-61
2022/03/15 02:23:52;;;;;;;19.88;9.05;;;;;;;;;;5042534;28;20039;-61
2022/03/15 02:26:18;;;;;;;21.73;8.70;;;;;;;;;;5043037;28;20037;-61
2022/03/15 02:28:45;;;;;;;17.23;8.57;;;;;;;;;;5042313;28;20882;-60
2022/03/15 02:31:11;;;;;;;17.42;7.72;;;;;;;;;;5042624;28;20112;-60
2022/03/15 02:33:37;;;;;;;20.20;7.93;;;;;;;;;;5041532;28;20132;-60
2022/03/15 02:36:04;;;;;;;18.58;8.05;;;;;;;;;;5042475;28;20044;-60
2022/03/15 02:38:30;;;;;;;18.05;8.55;;;;;;;;;;5042577;28;20056;-61
2022/03/15 02:40:56;;;;;;;16.00;8.68;;;;;;;;;;5042377;28;20043;-61
2022/03/15 02:43:22;;;;;;;18.67;8.35;;;;;;;;;;5042893;28;20063;-60
2022/03/15 02:45:48;;;;;;;15.45;7.65;;;;;;;;;;5042028;28;20041;-60
2022/03/15 02:48:15;;;;;;;18.58;8.50;;;;;;;;;;5041889;28;20571;-60
2022/03/15 02:50:41;;;;;;;22.48;8.48;;;;;;;;;;5024088;28;20486;-60
2022/03/15 02:53:08;;;;;;;19.80;8.18;;;;;;;;;;5043094;28;20033;-60
2022/03/15 02:55:34;;;;;;;14.70;7.38;;;;;;;;;;5042701;28;20458;-60
2022/03/15 02:58:02;;;;;;;17.35;8.77;;;;;;;;;;5042559;28;20049;-60
2022/03/15 03:00:28;;;;;;;17.33;8.25;;;;;;;;;;5042445;28;20072;-61
2022/03/15 03:02:55;;;;;;;16.08;7.85;;;;;;;;;;5045028;28;20045;-61
2022/03/15 03:05:21;;;;;;;20.02;8.65;;;;;;;;;;5029172;28;20478;-61
2022/03/15 03:07:48;;;;;;;17.40;7.82;;;;;;;;;;5045397;28;20406;-61
2022/03/15 03:10:16;;;;;;;20.70;8.52;;;;;;;;;;5046250;28;20044;-61
2022/03/15 03:12:45;;;;;;;16.35;7.68;;;;;;;;;;5045403;28;20041;-61
2022/03/15 03:15:12;;;;;;;13.35;7.78;;;;;;;;;;5045668;28;20045;-61
2022/03/15 03:17:42;;;;;;;20.80;7.47;;;;;;;;;;5045212;28;20059;-61
2022/03/15 03:20:09;;;;;;;21.08;7.60;;;;;;;;;;5045844;28;20037;-61
2022/03/15 03:22:36;;;;;;;19.20;8.70;;;;;;;;;;5044198;28;20037;-61
2022/03/15 03:25:04;;;;;;;19.15;8.70;;;;;;;;;;5045486;28;20131;-61
2022/03/15 03:27:30;;;;;;;15.23;8.57;;;;;;;;;;5045151;28;20551;-61
2022/03/15 03:29:58;;;;;;;17.10;9.05;;;;;;;;;;5045862;28;20041;-62
2022/03/15 03:32:25;;;;;;;21.30;9.07;;;;;;;;;;5045675;28;20443;-61
2022/03/15 03:34:52;;;;;;;24.67;9.18;;;;;;;;;;5044328;28;20083;-61
2022/03/15 03:37:18;;;;;;;19.48;8.88;;;;;;;;;;5043074;28;20041;-61
2022/03/15 03:39:44;;;;;;;16.85;9.40;;;;;;;;;;5043560;28;20837;-61
2022/03/15 03:42:11;;;;;;;36.28;11.30;;;;;;;;;;5045253;28;20131;-60
2022/03/15 03:44:38;;;;;;;15.93;8.88;;;;;;;;;;5045312;28;20406;-60
2022/03/15 03:47:04;;;;;;;20.52;8.95;;;;;;;;;;5044761;28;20800;-60
2022/03/15 03:49:31;;;;;;;15.00;8.50;;;;;;;;;;5041312;28;20033;-60
2022/03/15 03:51:58;;;;;;;15.75;8.43;;;;;;;;;;5045338;28;20685;-60
2022/03/15 03:54:24;;;;;;;17.48;9.57;;;;;;;;;;5044972;28;20041;-60
2022/03/15 03:56:50;;;;;;;19.88;8.80;;;;;;;;;;5045485;28;20119;-60
2022/03/15 03:59:17;;;;;;;19.00;9.10;;;;;;;;;;5045261;28;20175;-60
2022/03/15 04:01:43;;;;;;;18.70;8.68;;;;;;;;;;5044347;28;20044;-60
2022/03/15 04:04:09;;;;;;;24.27;9.35;;;;;;;;;;5042571;28;20037;-60
2022/03/15 04:06:36;;;;;;;17.73;9.13;;;;;;;;;;5044335;28;20132;-60
2022/03/15 04:09:04;;;;;;;20.33;9.23;;;;;;;;;;5044885;28;20063;-60
2022/03/15 04:11:31;;;;;;;19.83;9.25;;;;;;;;;;5045158;28;20049;-60
2022/03/15 04:13:59;;;;;;;20.15;8.85;;;;;;;;;;5044598;28;20116;-60
2022/03/15 04:16:26;;;;;;;17.25;7.55;;;;;;;;;;5045171;28;20037;-61
2022/03/15 04:18:53;;;;;;;14.48;7.85;;;;;;;;;;5044613;28;20823;-60
2022/03/15 04:21:24;;;;;;;17.42;7.18;;;;;;;;;;5044518;28;20390;-61
2022/03/15 04:23:51;;;;;;;15.07;8.60;;;;;;;;;;5045072;28;20041;-61
2022/03/15 04:26:18;;;;;;;19.65;8.43;;;;;;;;;;5044254;28;20044;-60
2022/03/15 04:28:44;;;;;;;16.50;8.50;;;;;;;;;;5044613;28;20482;-60
2022/03/15 04:31:10;;;;;;;21.77;9.30;;;;;;;;;;5044531;28;20040;-60
2022/03/15 04:33:36;;;;;;;16.15;9.52;;;;;;;;;;5043409;28;20040;-60
2022/03/15 04:36:03;;;;;;;21.42;10.40;;;;;;;;;;5026838;28;20088;-60
2022/03/15 04:38:29;;;;;;;18.70;9.43;;;;;;;;;;5043916;28;20045;-61
2022/03/15 04:40:57;;;;;;;28.33;10.13;;;;;;;;;;5044411;28;20048;-61
2022/03/15 04:43:23;;;;;;;26.77;10.98;;;;;;;;;;5044257;28;20842;-60
2022/03/15 04:45:50;;;;;;;18.30;9.82;;;;;;;;;;5043702;28;20356;-61
2022/03/15 04:48:18;;;;;;;14.13;8.02;;;;;;;;;;5043118;28;20052;-60
2022/03/15 04:50:44;;;;;;;21.92;8.40;;;;;;;;;;5043894;28;20048;-61
2022/03/15 04:53:10;;;;;;;21.48;10.02;;;;;;;;;;5044290;28;20045;-61
2022/03/15 04:55:37;;;;;;;21.33;9.75;;;;;;;;;;5044154;28;20112;-60
2022/03/15 04:58:03;;;;;;;26.95;11.38;;;;;;;;;;5043655;28;20097;-60
2022/03/15 05:00:29;;;;;;;23.38;12.23;;;;;;;;;;5041905;28;20036;-61
2022/03/15 05:02:56;;;;;;;23.63;11.13;;;;;;;;;;5043145;28;20077;-61
2022/03/15 05:05:22;;;;;;;26.88;11.15;;;;;;;;;;5043364;28;20048;-60
2022/03/15 05:07:48;;;;;;;27.23;11.27;;;;;;;;;;5043330;28;20075;-60
2022/03/15 05:13:01;;;;;;;23.25;12.07;;;;;;;;;;5043684;28;20068;-60
2022/03/15 05:15:27;;;;;;;24.83;11.88;;;;;;;;;;5043599;28;20044;-61
2022/03/15 05:17:53;;;;;;;23.58;12.85;;;;;;;;;;5043427;28;20048;-61
2022/03/15 05:20:19;;;;;;;29.05;14.13;;;;;;;;;;5043568;28;20049;-60
2022/03/15 05:22:46;;;;;;;29.13;12.95;;;;;;;;;;5043598;28;20033;-60
2022/03/15 05:25:13;;;;;;;34.92;14.88;;;;;;;;;;5042765;28;20044;-60
2022/03/15 05:27:40;;;;;;;33.10;14.23;;;;;;;;;;5043196;28;20045;-60
2022/03/15 05:30:07;;;;;;;32.97;14.27;;;;;;;;;;5025437;28;20045;-60
2022/03/15 05:32:33;;;;;;;37.20;14.43;;;;;;;;;;5042399;28;20041;-61
2022/03/15 05:35:01;;;;;;;31.08;13.57;;;;;;;;;;5043095;28;20048;-60
2022/03/15 05:37:28;;;;;;;33.75;15.93;;;;;;;;;;5039944;28;20064;-61
2022/03/15 05:39:54;;;;;;;29.63;13.07;;;;;;;;;;5043826;28;20045;-60
2022/03/15 05:42:20;;;;;;;34.03;14.00;;;;;;;;;;5043792;28;20089;-60
2022/03/15 05:44:47;;;;;;;26.52;14.73;;;;;;;;;;5042718;28;20033;-60
2022/03/15 05:47:13;;;;;;;38.00;14.57;;;;;;;;;;5040129;28;20045;-61
2022/03/15 05:49:40;;;;;;;29.55;13.95;;;;;;;;;;5042947;28;20068;-60
2022/03/15 05:52:07;;;;;;;31.63;15.77;;;;;;;;;;5043027;28;20490;-60
2022/03/15 05:54:35;;;;;;;34.13;15.50;;;;;;;;;;5042949;28;20044;-61
2022/03/15 05:57:01;;;;;;;32.83;16.38;;;;;;;;;;5042621;28;20107;-60
2022/03/15 05:59:27;;;;;;;42.67;16.30;;;;;;;;;;5042040;28;20043;-60
2022/03/15 06:01:54;;;;;;;32.65;14.98;;;;;;;;;;5043320;28;20655;-60
2022/03/15 06:04:23;;;;;;;38.95;15.38;;;;;;;;;;5042182;28;20037;-61
2022/03/15 06:06:50;;;;;;;34.63;15.90;;;;;;;;;;5040358;28;20144;-60
2022/03/15 06:09:17;;;;;;;43.63;16.67;;;;;;;;;;5041132;28;20576;-60
2022/03/15 06:11:43;;;;;;;35.67;15.43;;;;;;;;;;5032977;28;20037;-60
2022/03/15 06:14:09;;;;;;;30.95;15.23;;;;;;;;;;5033410;28;20549;-60
2022/03/15 06:16:35;;;;;;;32.53;15.63;;;;;;;;;;5029945;28;20033;-60
2022/03/15 06:19:02;;;;;;;38.85;17.55;;;;;;;;;;5030920;28;20063;-60
2022/03/15 06:21:28;;;;;;;32.28;15.85;;;;;;;;;;5032306;28;20095;-60
2022/03/15 06:23:54;;;;;;;35.63;17.17;;;;;;;;;;5034021;28;20048;-60
2022/03/15 06:26:21;;;;;;;35.97;16.45;;;;;;;;;;5033372;28;20049;-60
2022/03/15 06:28:48;;;;;;;37.97;15.77;;;;;;;;;;5030836;28;20087;-60
2022/03/15 06:31:14;;;;;;;34.83;16.60;;;;;;;;;;5027058;28;20044;-60
2022/03/15 06:33:42;;;;;;;36.28;17.33;;;;;;;;;;5026210;28;20046;-60
2022/03/15 06:36:11;;;;;;;44.45;18.27;;;;;;;;;;5033847;28;20085;-60
2022/03/15 06:38:39;;;;;;;39.72;17.77;;;;;;;;;;5019928;28;20490;-60
2022/03/15 06:41:05;;;;;;;37.17;16.48;;;;;;;;;;5033615;28;20124;-60
2022/03/15 06:43:32;;;;;;;37.92;17.58;;;;;;;;;;5038588;28;20068;-61
2022/03/15 06:45:58;;;;;;;40.50;18.55;;;;;;;;;;5036266;28;20048;-60
2022/03/15 06:48:25;;;;;;;46.50;18.83;;;;;;;;;;5039248;28;20048;-61
2022/03/15 06:50:53;;;;;;;40.13;17.83;;;;;;;;;;5035893;28;20037;-61
2022/03/15 06:53:20;;;;;;;36.72;17.02;;;;;;;;;;5035451;28;20042;-60
2022/03/15 06:55:46;;;;;;;40.00;17.23;;;;;;;;;;5045021;28;20044;-61
2022/03/15 06:58:13;;;;;;;42.60;18.60;;;;;;;;;;5046833;28;20483;-61
2022/03/15 07:00:39;;;;;;;40.97;18.67;;;;;;;;;;5046726;28;20126;-60
2022/03/15 07:03:05;;;;;;;37.72;17.75;;;;;;;;;;5045815;28;20368;-62
2022/03/15 07:05:31;;;;;;;40.03;18.85;;;;;;;;;;5046269;28;20510;-61
2022/03/15 07:07:57;;;;;;;38.88;17.70;;;;;;;;;;5045941;28;20053;-61
2022/03/15 07:10:24;;;;;;;37.40;17.65;;;;;;;;;;5041539;28;20061;-60
2022/03/15 07:12:50;;;;;;;41.70;17.70;;;;;;;;;;5046754;28;20044;-60
2022/03/15 07:15:17;;;;;;;42.55;18.33;;;;;;;;;;5024538;28;20049;-60
2022/03/15 07:17:51;;;;;;;37.88;17.55;;;;;;;;;;5045321;28;20497;-61
2022/03/15 07:20:17;;;;;;;40.65;19.02;;;;;;;;;;5045930;28;20052;-61
2022/03/15 07:22:43;;;;;;;38.00;17.55;;;;;;;;;;5046041;28;20040;-61
2022/03/15 07:25:10;;;;;;;39.20;18.30;;;;;;;;;;5045639;28;20115;-61
2022/03/15 07:27:36;;;;;;;40.97;18.77;;;;;;;;;;5045777;28;20044;-61
2022/03/15 07:30:02;;;;;;;38.88;17.88;;;;;;;;;;5046001;28;20029;-61
2022/03/15 07:32:28;;;;;;;40.95;19.05;;;;;;;;;;5045070;28;20045;-61
2022/03/15 07:34:54;;;;;;;41.80;19.58;;;;;;;;;;5046388;28;20045;-60
2022/03/15 07:37:21;;;;;;;39.95;19.25;;;;;;;;;;5046064;28;20045;-61
2022/03/15 07:39:47;;;;;;;44.22;19.73;;;;;;;;;;5045901;28;20691;-61
2022/03/15 07:42:13;;;;;;;34.60;19.05;;;;;;;;;;5045490;28;20380;-60
2022/03/15 07:44:42;;;;;;;34.35;18.15;;;;;;;;;;5045640;28;20501;-61
2022/03/15 07:47:08;;;;;;;42.80;19.25;;;;;;;;;;5026477;28;20037;-61
2022/03/15 07:49:34;;;;;;;38.35;19.95;;;;;;;;;;5045591;28;20128;-61
2022/03/15 07:52:00;;;;;;;37.55;19.67;;;;;;;;;;5045195;28;20124;-61
2022/03/15 07:54:26;;;;;;;35.40;18.73;;;;;;;;;;5045300;28;20071;-62
2022/03/15 07:56:52;;;;;;;40.97;19.15;;;;;;;;;;5045860;28;20475;-61
2022/03/15 07:59:19;;;;;;;39.88;19.45;;;;;;;;;;5045735;28;20103;-61
2022/03/15 08:01:45;;;;;;;40.47;19.55;;;;;;;;;;5044955;28;20535;-61
2022/03/15 08:04:11;;;;;;;43.90;20.42;;;;;;;;;;5044633;28;20127;-62
2022/03/15 08:06:38;;;;;;;42.25;20.17;;;;;;;;;;5045210;28;20041;-61
2022/03/15 08:09:04;;;;;;;37.10;19.65;;;;;;;;;;5045102;28;20049;-61
2022/03/15 08:11:31;;;;;;;38.95;19.27;;;;;;;;;;5045127;28;20049;-61
2022/03/15 08:13:58;;;;;;;44.78;20.42;;;;;;;;;;5045154;28;20056;-61
2022/03/15 08:16:24;;;;;;;40.72;20.27;;;;;;;;;;5045683;28;20493;-61
2022/03/15 08:18:51;;;;;;;38.20;21.00;;;;;;;;;;5044006;28;20123;-61
2022/03/15 08:21:18;;;;;;;39.03;21.10;;;;;;;;;;5045224;28;20176;-61
2022/03/15 08:23:45;;;;;;;41.22;19.77;;;;;;;;;;5044976;28;20052;-61
2022/03/15 08:26:11;;;;;;;46.63;20.13;;;;;;;;;;5044954;28;20128;-61
2022/03/15 08:28:38;;;;;;;39.97;20.13;;;;;;;;;;5044893;28;20037;-61
2022/03/15 08:31:04;;;;;;;42.33;21.02;;;;;;;;;;5044916;28;20048;-61
2022/03/15 08:33:30;;;;;;;42.58;21.27;;;;;;;;;;5043813;28;20048;-61
2022/03/15 08:35:57;;;;;;;43.92;20.45;;;;;;;;;;5044524;28;20045;-61
2022/03/15 08:38:23;;;;;;;39.50;20.73;;;;;;;;;;5045058;28;20049;-60
2022/03/15 08:40:49;;;;;;;41.35;19.27;;;;;;;;;;5044409;28;20037;-60
2022/03/15 08:43:15;;;;;;;44.85;22.65;;;;;;;;;;5044705;28;20136;-60
2022/03/15 08:45:42;;;;;;;42.65;21.05;;;;;;;;;;5044138;28;20041;-61
2022/03/15 08:48:08;;;;;;;44.60;21.15;;;;;;;;;;5044167;28;20041;-60
2022/03/15 08:50:34;;;;;;;42.55;20.17;;;;;;;;;;5044385;28;20096;-61
2022/03/15 08:53:01;;;;;;;38.15;21.80;;;;;;;;;;5044694;28;20075;-61
2022/03/15 08:55:28;;;;;;;38.60;21.65;;;;;;;;;;5043782;28;20128;-61
2022/03/15 08:57:54;;;;;;;42.83;21.63;;;;;;;;;;5044669;28;20817;-61
2022/03/15 09:00:21;;;;;;;41.10;20.88;;;;;;;;;;5043687;28;20044;-60
2022/03/15 09:02:47;;;;;;;43.80;20.60;;;;;;;;;;5043142;28;20203;-60
2022/03/15 09:05:16;;;;;;;44.40;20.77;;;;;;;;;;5044570;28;20041;-61
2022/03/15 09:07:43;;;;;;;41.10;21.17;;;;;;;;;;5043778;28;20061;-61
2022/03/15 09:10:09;;;;;;;40.78;21.52;;;;;;;;;;5044219;28;20052;-60
2022/03/15 09:12:35;;;;;;;39.72;21.13;;;;;;;;;;5043586;28;20056;-61
2022/03/15 09:15:02;;;;;;;40.85;21.92;;;;;;;;;;5043717;28;20044;-60
2022/03/15 09:17:28;;;;;;;42.60;21.58;;;;;;;;;;5043138;28;20037;-61
2022/03/15 09:19:54;;;;;;;46.45;23.30;;;;;;;;;;5040542;28;20041;-60
2022/03/15 09:22:20;;;;;;;42.28;22.48;;;;;;;;;;5044442;28;20053;-60
2022/03/15 09:24:46;;;;;;;41.28;21.80;;;;;;;;;;5043494;28;20406;-60
2022/03/15 09:27:13;;;;;;;42.17;21.73;;;;;;;;;;5043672;28;20429;-60
2022/03/15 09:29:39;;;;;;;41.63;21.30;;;;;;;;;;5043110;28;20640;-61
2022/03/15 09:32:08;;;;;;;40.05;21.27;;;;;;;;;;5043169;28;20045;-60
2022/03/15 09:34:35;;;;;;;42.67;20.23;;;;;;;;;;5043522;28;20052;-60
2022/03/15 09:37:02;;;;;;;44.85;22.20;;;;;;;;;;5043960;28;20124;-61
2022/03/15 09:39:28;;;;;;;43.22;21.80;;;;;;;;;;5043286;28;20402;-60
2022/03/15 09:41:56;;;;;;;39.70;23.00;;;;;;;;;;5044228;28;20091;-60
2022/03/15 09:44:26;;;;;;;47.08;23.27;;;;;;;;;;5043820;28;20461;-60
2022/03/15 09:46:52;;;;;;;38.42;21.83;;;;;;;;;;5042458;28;20037;-60
2022/03/15 09:49:19;;;;;;;45.28;22.48;;;;;;;;;;5043726;28;20055;-60
2022/03/15 09:51:46;;;;;;;42.92;22.10;;;;;;;;;;5043352;28;20045;-60
2022/03/15 09:54:13;;;;;;;43.92;22.50;;;;;;;;;;5043306;28;20055;-61
2022/03/15 09:56:40;;;;;;;40.00;23.10;;;;;;;;;;5043144;28;20049;-60
2022/03/15 09:59:12;;;;;;;43.47;22.70;;;;;;;;;;5043255;28;20753;-61
2022/03/15 10:01:40;;;;;;;46.65;23.25;;;;;;;;;;5041968;28;20116;-61
2022/03/15 10:04:07;;;;;;;41.15;22.60;;;;;;;;;;5043599;28;20048;-61
2022/03/15 10:06:33;;;;;;;46.75;22.58;;;;;;;;;;5042901;28;20047;-61
2022/03/15 10:08:59;;;;;;;49.33;23.75;;;;;;;;;;5043215;28;20049;-61
2022/03/15 10:11:26;;;;;;;40.15;22.45;;;;;;;;;;5042755;28;20082;-61
2022/03/15 10:13:52;;;;;;;37.63;22.75;;;;;;;;;;5043421;28;20041;-61
2022/03/15 10:16:21;;;;;;;40.03;20.73;;;;;;;;;;5043155;28;20052;-61
2022/03/15 10:18:55;;;;;;;40.40;20.38;;;;;;;;;;5041856;28;20045;-61
2022/03/15 10:21:24;;;;;;;31.92;20.27;;;;;;;;;;5043418;28;20049;-61
2022/03/15 10:23:55;;;;;;;40.47;20.48;;;;;;;;;;5043239;28;20384;-61
2022/03/15 10:26:23;;;;;;;35.72;19.17;;;;;;;;;;5043557;28;20120;-61
2022/03/15 10:28:50;;;;;;;34.22;20.17;;;;;;;;;;5042881;28;20045;-61
2022/03/15 10:31:17;;;;;;;34.97;20.77;;;;;;;;;;5043191;28;20045;-61
2022/03/15 10:33:43;;;;;;;42.92;20.27;;;;;;;;;;5041589;28;20457;-61
2022/03/15 10:36:17;;;;;;;37.03;19.90;;;;;;;;;;5042964;28;20040;-61
2022/03/15 10:38:45;;;;;;;37.88;19.50;;;;;;;;;;5042764;28;20155;-61
2022/03/15 10:41:14;;;;;;;35.47;19.17;;;;;;;;;;5039148;28;20083;-61
2022/03/15 10:43:41;;;;;;;32.67;17.50;;;;;;;;;;5042731;28;20048;-61
2022/03/15 10:46:09;;;;;;;41.20;19.52;;;;;;;;;;5042483;28;20068;-61
2022/03/15 10:48:36;;;;;;;32.28;18.98;;;;;;;;;;5041776;28;20509;-61
2022/03/15 10:51:05;;;;;;;30.75;17.70;;;;;;;;;;5042795;28;20048;-61
2022/03/15 10:53:39;;;;;;;36.83;18.23;;;;;;;;;;5024658;28;20041;-61
2022/03/15 10:56:09;;;;;;;37.90;19.55;;;;;;;;;;5042885;28;20053;-61
2022/03/15 10:58:43;;;;;;;31.58;17.30;;;;;;;;;;5042559;28;20650;-61
2022/03/15 11:01:09;;;;;;;31.08;17.50;;;;;;;;;;5041741;28;20091;-61
2022/03/15 11:03:36;;;;;;;33.72;18.58;;;;;;;;;;5041446;28;20072;-61
2022/03/15 11:06:08;;;;;;;36.60;18.45;;;;;;;;;;5042061;28;20127;-62
2022/03/15 11:08:36;;;;;;;33.22;18.25;;;;;;;;;;5041750;28;20053;-61
2022/03/15 11:11:06;;;;;;;;;;;;;;;;;;5042821;28;20052;-61
2022/03/15 11:13:32;;;;;;;35.80;17.45;;;;;;;;;;5042254;28;19974;-62
2022/03/15 11:15:59;;;;;;;33.55;17.88;;;;;;;;;;5038984;28;20048;-62
2022/03/15 11:18:29;;;;;;;30.58;17.90;;;;;;;;;;5037110;28;20033;-62
2022/03/15 11:20:58;;;;;;;32.50;17.58;;;;;;;;;;5042396;28;20461;-62
2022/03/15 11:23:25;;;;;;;30.52;17.00;;;;;;;;;;5026928;28;20128;-61
2022/03/15 11:26:01;;;;;;;32.67;16.95;;;;;;;;;;5044776;28;20071;-61
2022/03/15 11:28:28;;;;;;;33.67;16.58;;;;;;;;;;5042558;28;20045;-61
2022/03/15 11:30:56;;;;;;;28.98;15.68;;;;;;;;;;5041131;28;20047;-62
2022/03/15 11:33:22;;;;;;;28.35;16.35;;;;;;;;;;5044628;28;20041;-61
2022/03/15 11:35:50;;;;;;;27.83;14.85;;;;;;;;;;5044858;28;20415;-62
2022/03/15 11:38:18;;;;;;;33.33;14.65;;;;;;;;;;5041898;28;20486;-61
2022/03/15 11:40:45;;;;;;;25.77;14.40;;;;;;;;;;5041639;28;20041;-62
2022/03/15 11:43:15;;;;;;;28.63;13.77;;;;;;;;;;5045658;28;20048;-60
2022/03/15 11:45:44;;;;;;;28.63;14.18;;;;;;;;;;5044671;28;20041;-61
2022/03/15 11:48:22;;;;;;;25.98;14.48;;;;;;;;;;5043884;28;20105;-61
2022/03/15 11:50:59;;;;;;;25.02;14.35;;;;;;;;;;5040311;28;20033;-61
2022/03/15 11:53:29;;;;;;;33.92;14.40;;;;;;;;;;5043830;28;20076;-62
2022/03/15 11:56:07;;;;;;;27.02;14.05;;;;;;;;;;5045535;28;20069;-61
2022/03/15 11:58:34;;;;;;;24.35;13.75;;;;;;;;;;5045553;28;20038;-61
2022/03/15 12:01:12;;;;;;;20.55;13.95;;;;;;;;;;5045007;28;20048;-61
2022/03/15 12:03:47;;;;;;;23.65;12.73;;;;;;;;;;5045080;28;20037;-63
2022/03/15 12:06:17;;;;;;;23.13;13.70;;;;;;;;;;5041435;28;20045;-61
2022/03/15 12:08:43;;;;;;;33.63;13.60;;;;;;;;;;5045324;28;20083;-61
2022/03/15 12:11:09;;;;;;;19.13;12.45;;;;;;;;;;5045383;28;20037;-61
2022/03/15 12:13:45;;;;;;;30.67;12.88;;;;;;;;;;5045111;28;20037;-61
2022/03/15 12:16:15;;;;;;;25.02;12.48;;;;;;;;;;5044301;28;20088;-61
2022/03/15 12:18:43;;;;;;;20.13;11.85;;;;;;;;;;5045302;28;20099;-61
2022/03/15 12:21:11;;;;;;;21.20;11.05;;;;;;;;;;5040645;28;20534;-60
2022/03/15 12:23:43;;;;;;;24.00;10.40;;;;;;;;;;5045036;28;20120;-61
2022/03/15 12:26:17;;;;;;;22.40;12.45;;;;;;;;;;5044586;28;20040;-61
2022/03/15 12:28:54;;;;;;;21.73;12.15;;;;;;;;;;5044786;28;20048;-62
2022/03/15 12:31:20;;;;;;;27.00;13.07;;;;;;;;;;5043616;28;20486;-62
2022/03/15 12:34:00;;;;;;;17.85;11.05;;;;;;;;;;5043958;28;20040;-61
2022/03/15 12:36:35;;;;;;;21.83;10.95;;;;;;;;;;5044489;28;20041;-62
2022/03/15 12:39:08;;;;;;;23.85;11.27;;;;;;;;;;5044964;28;20040;-62
2022/03/15 12:41:34;;;;;;;21.63;10.48;;;;;;;;;;5044754;28;20842;-61
2022/03/15 12:44:00;;;;;;;24.65;11.48;;;;;;;;;;5044207;28;20029;-62
2022/03/15 12:46:30;;;;;;;17.13;9.85;;;;;;;;;;5043155;28;20051;-62
2022/03/15 12:48:57;;;;;;;22.13;10.38;;;;;;;;;;5044584;28;20044;-62
2022/03/15 12:51:23;;;;;;;24.73;10.70;;;;;;;;;;5045027;28;20598;-62
2022/03/15 12:53:50;;;;;;;21.60;9.13;;;;;;;;;;5044184;28;20524;-62
2022/03/15 12:56:16;;;;;;;19.23;8.98;;;;;;;;;;5044569;28;20041;-62
2022/03/15 12:58:43;;;;;;;18.48;9.45;;;;;;;;;;5044199;28;20490;-62
2022/03/15 13:01:09;;;;;;;24.63;9.00;;;;;;;;;;5042751;28;20481;-62
2022/03/15 13:03:38;;;;;;;18.67;8.85;;;;;;;;;;5044084;28;20037;-62
2022/03/15 13:06:04;;;;;;;;;;;;;;;;;;5045018;28;20113;-62
2022/03/15 13:08:31;;;;;;;16.73;8.60;;;;;;;;;;5043572;28;20267;-62
2022/03/15 13:11:03;;;;;;;17.87;9.83;;;;;;;;;;5044122;28;20048;-62
2022/03/15 13:13:29;;;;;;;19.95;8.68;;;;;;;;;;5044156;28;20049;-62
2022/03/15 13:16:00;;;;;;;17.40;8.70;;;;;;;;;;5043645;28;20045;-62
2022/03/15 13:18:26;;;;;;;17.88;9.10;;;;;;;;;;5043688;28;20087;-63
2022/03/15 13:20:58;;;;;;;22.15;9.70;;;;;;;;;;5043979;28;20426;-61
2022/03/15 13:23:24;;;;;;;22.38;10.27;;;;;;;;;;5040414;28;20045;-62
2022/03/15 13:25:51;;;;;;;22.60;10.05;;;;;;;;;;5040115;28;20059;-61
2022/03/15 13:28:22;;;;;;;22.80;10.00;;;;;;;;;;5042732;28;20087;-62
2022/03/15 13:30:50;;;;;;;19.73;9.63;;;;;;;;;;5042093;28;20087;-62
2022/03/15 13:33:28;;;;;;;24.05;9.77;;;;;;;;;;5042851;28;20049;-62
2022/03/15 13:36:12;;;;;;;20.13;9.75;;;;;;;;;;5043842;28;20033;-62
2022/03/15 13:38:44;;;;;;;23.33;10.00;;;;;;;;;;5042043;28;20045;-63
2022/03/15 13:41:11;;;;;;;18.75;10.20;;;;;;;;;;5043476;28;20048;-63
2022/03/15 13:43:39;;;;;;;16.13;8.77;;;;;;;;;;5042839;28;20041;-63
2022/03/15 13:46:06;;;;;;;18.90;9.05;;;;;;;;;;5041735;28;20115;-63
2022/03/15 13:48:34;;;;;;;21.23;9.55;;;;;;;;;;5039351;28;20106;-63
2022/03/15 13:51:10;;;;;;;21.42;8.95;;;;;;;;;;5043803;28;20045;-63
2022/03/15 13:53:38;;;;;;;18.50;8.73;;;;;;;;;;5043084;28;20398;-63
2022/03/15 13:56:08;;;;;;;19.92;9.02;;;;;;;;;;5043028;28;20067;-63
2022/03/15 13:58:34;;;;;;;14.60;9.05;;;;;;;;;;5043211;28;20075;-63
2022/03/15 14:01:03;;;;;;;18.98;10.00;;;;;;;;;;5042674;28;20514;-63
2022/03/15 14:03:30;;;;;;;18.80;9.77;;;;;;;;;;5043340;28;20041;-63
2022/03/15 14:06:03;;;;;;;20.98;9.57;;;;;;;;;;5043160;28;20114;-63
2022/03/15 14:08:30;;;;;;;21.50;10.60;;;;;;;;;;5042809;28;20056;-63
2022/03/15 14:10:56;;;;;;;22.33;11.73;;;;;;;;;;5042889;28;20526;-63
2022/03/15 14:13:24;;;;;;;19.85;10.43;;;;;;;;;;5043493;28;20120;-63
2022/03/15 14:15:57;;;;;;;19.60;10.95;;;;;;;;;;5043019;28;20087;-63
2022/03/15 14:18:25;;;;;;;19.85;10.60;;;;;;;;;;5039433;28;20045;-63
2022/03/15 14:20:51;;;;;;;20.85;11.52;;;;;;;;;;5043570;28;20072;-63
2022/03/15 14:23:18;;;;;;;20.45;10.68;;;;;;;;;;5043163;28;20040;-63
2022/03/15 14:25:45;;;;;;;18.13;11.27;;;;;;;;;;5042966;28;20083;-63
2022/03/15 14:28:16;;;;;;;17.88;11.43;;;;;;;;;;5042524;28;20470;-62
2022/03/15 14:30:43;;;;;;;22.27;10.82;;;;;;;;;;5042842;28;20110;-63